createdAt,value
2023-03-05T00:00:35.000Z,275.35
2023-03-05T00:02:02.000Z,275.35
2023-03-05T00:04:10.000Z,275.34
2023-03-05T00:05:36.000Z,275.32
2023-03-05T00:07:42.000Z,275.32
2023-03-05T00:09:09.000Z,275.31
2023-03-05T00:11:15.000Z,275.32
2023-03-05T00:12:41.000Z,275.3
2023-03-05T00:14:48.000Z,275.31
2023-03-05T00:16:14.000Z,275.3
2023-03-05T00:18:20.000Z,275.3
2023-03-05T00:19:47.000Z,275.3
2023-03-05T00:21:53.000Z,275.3
2023-03-05T00:23:19.000Z,275.27
2023-03-05T00:25:25.000Z,275.27
2023-03-05T00:26:52.000Z,275.27
2023-03-05T00:28:58.000Z,275.27
2023-03-05T00:30:24.000Z,275.24
2023-03-05T00:32:30.000Z,275.27
2023-03-05T00:35:22.000Z,275.24
2023-03-05T00:36:48.000Z,275.23
2023-03-05T00:38:55.000Z,275.23
2023-03-05T00:40:21.000Z,275.2
2023-03-05T00:42:27.000Z,275.2
2023-03-05T00:43:54.000Z,275.2
2023-03-05T00:46:00.000Z,275.2
2023-03-05T00:47:27.000Z,275.22
2023-03-05T00:49:33.000Z,275.2
2023-03-05T00:50:59.000Z,275.22
2023-03-05T00:53:05.000Z,275.22
2023-03-05T00:54:32.000Z,275.22
2023-03-05T00:56:38.000Z,275.22
2023-03-05T00:58:05.000Z,275.23
2023-03-05T01:00:11.000Z,275.23
2023-03-05T01:01:37.000Z,275.22
2023-03-05T01:03:44.000Z,275.22
2023-03-05T01:05:10.000Z,275.23
2023-03-05T01:07:16.000Z,275.24
2023-03-05T01:08:43.000Z,275.24
2023-03-05T01:10:49.000Z,275.23
2023-03-05T01:13:40.000Z,275.23
2023-03-05T01:15:07.000Z,275.22
2023-03-05T01:17:13.000Z,275.23
2023-03-05T01:18:39.000Z,275.22
2023-03-05T01:20:45.000Z,275.2
2023-03-05T01:22:12.000Z,275.19
2023-03-05T01:24:18.000Z,275.2
2023-03-05T01:25:44.000Z,275.19
2023-03-05T01:27:51.000Z,275.17
2023-03-05T01:29:17.000Z,275.16
2023-03-05T01:31:23.000Z,275.16
2023-03-05T01:32:50.000Z,275.15
2023-03-05T01:34:56.000Z,275.15
2023-03-05T01:36:22.000Z,275.15
2023-03-05T01:38:28.000Z,275.12
2023-03-05T01:39:55.000Z,275.1
2023-03-05T01:42:01.000Z,275.1
2023-03-05T01:43:28.000Z,275.09
2023-03-05T01:45:34.000Z,275.09
2023-03-05T01:47:00.000Z,275.06
2023-03-05T01:49:06.000Z,275.06
2023-03-05T01:51:58.000Z,275.04
2023-03-05T01:53:24.000Z,275.02
2023-03-05T01:55:30.000Z,275.02
2023-03-05T01:56:57.000Z,275.01
2023-03-05T01:59:03.000Z,275.01
2023-03-05T02:00:30.000Z,274.98
2023-03-05T02:02:36.000Z,274.98
2023-03-05T02:04:02.000Z,274.97
2023-03-05T02:06:09.000Z,274.94
2023-03-05T02:07:35.000Z,274.97
2023-03-05T02:09:41.000Z,274.94
2023-03-05T02:11:08.000Z,274.94
2023-03-05T02:13:14.000Z,274.94
2023-03-05T02:14:40.000Z,274.91
2023-03-05T02:16:46.000Z,274.92
2023-03-05T02:18:13.000Z,274.92
2023-03-05T02:20:19.000Z,274.92
2023-03-05T02:21:46.000Z,274.92
2023-03-05T02:23:52.000Z,274.94
2023-03-05T02:25:19.000Z,274.94
2023-03-05T02:27:25.000Z,274.92
2023-03-05T02:30:16.000Z,274.92
2023-03-05T02:31:42.000Z,274.9
2023-03-05T02:33:49.000Z,274.91
2023-03-05T02:35:15.000Z,274.9
2023-03-05T02:37:21.000Z,274.88
2023-03-05T02:38:48.000Z,274.88
2023-03-05T02:40:54.000Z,274.84
2023-03-05T02:42:20.000Z,274.85
2023-03-05T02:44:26.000Z,274.83
2023-03-05T02:45:53.000Z,274.83
2023-03-05T02:47:59.000Z,274.83
2023-03-05T02:49:26.000Z,274.83
2023-03-05T02:51:32.000Z,274.83
2023-03-05T02:52:58.000Z,274.81
2023-03-05T02:55:04.000Z,274.8
2023-03-05T02:56:31.000Z,274.8
2023-03-05T02:58:37.000Z,274.8
2023-03-05T03:00:04.000Z,274.78
2023-03-05T03:02:10.000Z,274.78
2023-03-05T03:03:36.000Z,274.78
2023-03-05T03:05:43.000Z,274.77
2023-03-05T03:08:34.000Z,274.76
2023-03-05T03:10:00.000Z,274.76
2023-03-05T03:12:06.000Z,274.77
2023-03-05T03:13:33.000Z,274.76
2023-03-05T03:15:39.000Z,274.76
2023-03-05T03:17:06.000Z,274.76
2023-03-05T03:19:12.000Z,274.76
2023-03-05T03:20:38.000Z,274.73
2023-03-05T03:22:44.000Z,274.73
2023-03-05T03:24:11.000Z,274.73
2023-03-05T03:26:17.000Z,274.73
2023-03-05T03:27:43.000Z,274.72
2023-03-05T03:29:50.000Z,274.73
2023-03-05T03:31:16.000Z,274.73
2023-03-05T03:33:22.000Z,274.73
2023-03-05T03:34:49.000Z,274.73
2023-03-05T03:36:55.000Z,274.76
2023-03-05T03:38:21.000Z,274.73
2023-03-05T03:40:28.000Z,274.73
2023-03-05T03:41:54.000Z,274.76
2023-03-05T03:44:00.000Z,274.76
2023-03-05T03:46:51.000Z,274.76
2023-03-05T03:48:18.000Z,274.76
2023-03-05T03:50:24.000Z,274.73
2023-03-05T03:51:50.000Z,274.73
2023-03-05T03:53:56.000Z,274.73
2023-03-05T03:55:23.000Z,274.73
2023-03-05T03:57:29.000Z,274.73
2023-03-05T03:58:56.000Z,274.71
2023-03-05T04:01:02.000Z,274.69
2023-03-05T04:02:28.000Z,274.69
2023-03-05T04:04:34.000Z,274.69
2023-03-05T04:06:01.000Z,274.68
2023-03-05T04:08:07.000Z,274.66
2023-03-05T04:09:34.000Z,274.68
2023-03-05T04:11:40.000Z,274.66
2023-03-05T04:13:06.000Z,274.65
2023-03-05T04:15:12.000Z,274.64
2023-03-05T04:16:39.000Z,274.64
2023-03-05T04:18:45.000Z,274.64
2023-03-05T04:20:12.000Z,274.62
2023-03-05T04:22:18.000Z,274.62
2023-03-05T04:25:09.000Z,274.61
2023-03-05T04:26:36.000Z,274.61
2023-03-05T04:28:42.000Z,274.61
2023-03-05T04:30:08.000Z,274.59
2023-03-05T04:32:14.000Z,274.59
2023-03-05T04:33:41.000Z,274.56
2023-03-05T04:35:47.000Z,274.54
2023-03-05T04:37:14.000Z,274.54
2023-03-05T04:39:20.000Z,274.54
2023-03-05T04:40:46.000Z,274.53
2023-03-05T04:42:53.000Z,274.51
2023-03-05T04:44:19.000Z,274.51
2023-03-05T04:46:25.000Z,274.5
2023-03-05T04:47:52.000Z,274.49
2023-03-05T04:49:58.000Z,274.47
2023-03-05T04:51:25.000Z,274.47
2023-03-05T04:53:31.000Z,274.46
2023-03-05T04:54:57.000Z,274.44
2023-03-05T04:57:03.000Z,274.43
2023-03-05T04:58:30.000Z,274.42
2023-03-05T05:00:36.000Z,274.43
2023-03-05T05:03:27.000Z,274.4
2023-03-05T05:04:54.000Z,274.4
2023-03-05T05:07:00.000Z,274.39
2023-03-05T05:08:26.000Z,274.38
2023-03-05T05:10:33.000Z,274.38
2023-03-05T05:11:59.000Z,274.38
2023-03-05T05:14:05.000Z,274.38
2023-03-05T05:15:32.000Z,274.36
2023-03-05T05:17:38.000Z,274.38
2023-03-05T05:19:04.000Z,274.36
2023-03-05T05:21:10.000Z,274.35
2023-03-05T05:22:37.000Z,274.35
2023-03-05T05:24:43.000Z,274.33
2023-03-05T05:26:10.000Z,274.35
2023-03-05T05:28:16.000Z,274.35
2023-03-05T05:29:42.000Z,274.35
2023-03-05T05:31:48.000Z,274.35
2023-03-05T05:33:15.000Z,274.33
2023-03-05T05:35:21.000Z,274.33
2023-03-05T05:36:48.000Z,274.33
2023-03-05T05:38:54.000Z,274.33
2023-03-05T05:41:45.000Z,274.32
2023-03-05T05:43:11.000Z,274.33
2023-03-05T05:45:17.000Z,274.35
2023-03-05T05:46:44.000Z,274.33
2023-03-05T05:48:50.000Z,274.33
2023-03-05T05:50:17.000Z,274.33
2023-03-05T05:52:23.000Z,274.35
2023-03-05T05:53:49.000Z,274.35
2023-03-05T05:55:55.000Z,274.35
2023-03-05T05:57:22.000Z,274.36
2023-03-05T05:59:28.000Z,274.35
2023-03-05T06:00:55.000Z,274.36
2023-03-05T06:03:01.000Z,274.36
2023-03-05T06:04:27.000Z,274.33
2023-03-05T06:06:33.000Z,274.35
2023-03-05T06:08:00.000Z,274.36
2023-03-05T06:10:06.000Z,274.36
2023-03-05T06:11:32.000Z,274.35
2023-03-05T06:13:39.000Z,274.35
2023-03-05T06:15:05.000Z,274.35
2023-03-05T06:17:11.000Z,274.33
2023-03-05T06:20:07.000Z,274.33
2023-03-05T06:21:34.000Z,274.33
2023-03-05T06:23:40.000Z,274.33
2023-03-05T06:25:07.000Z,274.33
2023-03-05T06:27:13.000Z,274.33
2023-03-05T06:28:39.000Z,274.33
2023-03-05T06:30:45.000Z,274.33
2023-03-05T06:32:12.000Z,274.33
2023-03-05T06:34:18.000Z,274.36
2023-03-05T06:35:45.000Z,274.36
2023-03-05T06:37:51.000Z,274.39
2023-03-05T06:39:17.000Z,274.39
2023-03-05T06:41:23.000Z,274.4
2023-03-05T06:42:50.000Z,274.42
2023-03-05T06:44:56.000Z,274.43
2023-03-05T06:46:23.000Z,274.44
2023-03-05T06:48:29.000Z,274.46
2023-03-05T06:49:56.000Z,274.49
2023-03-05T06:52:02.000Z,274.5
2023-03-05T06:53:28.000Z,274.5
2023-03-05T06:55:35.000Z,274.53
2023-03-05T06:58:26.000Z,274.54
2023-03-05T06:59:52.000Z,274.58
2023-03-05T07:01:58.000Z,274.61
2023-03-05T07:03:25.000Z,274.62
2023-03-05T07:05:31.000Z,274.64
2023-03-05T07:07:00.000Z,274.65
2023-03-05T07:09:06.000Z,274.66
2023-03-05T07:10:33.000Z,274.69
2023-03-05T07:12:39.000Z,274.68
2023-03-05T07:14:05.000Z,274.71
2023-03-05T07:16:12.000Z,274.71
2023-03-05T07:17:38.000Z,274.73
2023-03-05T07:19:44.000Z,274.77
2023-03-05T07:21:11.000Z,274.8
2023-03-05T07:23:17.000Z,274.81
2023-03-05T07:24:44.000Z,274.83
2023-03-05T07:26:50.000Z,274.84
2023-03-05T07:28:16.000Z,274.85
2023-03-05T07:30:22.000Z,274.87
2023-03-05T07:31:49.000Z,274.87
2023-03-05T07:33:55.000Z,274.88
2023-03-05T07:36:46.000Z,274.92
2023-03-05T07:38:13.000Z,274.92
2023-03-05T07:40:19.000Z,274.95
2023-03-05T07:41:45.000Z,274.97
2023-03-05T07:43:51.000Z,274.99
2023-03-05T07:45:18.000Z,275.02
2023-03-05T07:47:24.000Z,275.05
2023-03-05T07:48:51.000Z,275.09
2023-03-05T07:50:57.000Z,275.13
2023-03-05T07:52:23.000Z,275.16
2023-03-05T07:54:29.000Z,275.17
2023-03-05T07:55:56.000Z,275.2
2023-03-05T07:58:02.000Z,275.24
2023-03-05T07:59:29.000Z,275.24
2023-03-05T08:01:35.000Z,275.28
2023-03-05T08:03:01.000Z,275.28
2023-03-05T08:05:08.000Z,275.31
2023-03-05T08:06:34.000Z,275.32
2023-03-05T08:08:40.000Z,275.35
2023-03-05T08:10:07.000Z,275.35
2023-03-05T08:12:13.000Z,275.37
2023-03-05T08:15:04.000Z,275.39
2023-03-05T08:16:31.000Z,275.41
2023-03-05T08:18:37.000Z,275.42
2023-03-05T08:20:03.000Z,275.43
2023-03-05T08:22:10.000Z,275.45
2023-03-05T08:23:36.000Z,275.49
2023-03-05T08:25:42.000Z,275.53
2023-03-05T08:27:09.000Z,275.52
2023-03-05T08:29:15.000Z,275.53
2023-03-05T08:30:41.000Z,275.56
2023-03-05T08:32:48.000Z,275.59
2023-03-05T08:34:14.000Z,275.6
2023-03-05T08:36:20.000Z,275.64
2023-03-05T08:37:47.000Z,275.67
2023-03-05T08:39:53.000Z,275.71
2023-03-05T08:41:19.000Z,275.73
2023-03-05T08:43:26.000Z,275.75
2023-03-05T08:44:52.000Z,275.77
2023-03-05T08:46:58.000Z,275.77
2023-03-05T08:48:25.000Z,275.8
2023-03-05T08:50:31.000Z,275.82
2023-03-05T08:53:22.000Z,275.82
2023-03-05T08:54:48.000Z,275.82
2023-03-05T08:56:54.000Z,275.84
2023-03-05T08:58:21.000Z,275.84
2023-03-05T09:00:27.000Z,275.84
2023-03-05T09:01:54.000Z,275.85
2023-03-05T09:04:00.000Z,275.87
2023-03-05T09:05:26.000Z,275.91
2023-03-05T09:07:32.000Z,275.91
2023-03-05T09:08:59.000Z,275.92
2023-03-05T09:11:05.000Z,275.94
2023-03-05T09:12:31.000Z,275.99
2023-03-05T09:14:37.000Z,275.99
2023-03-05T09:16:04.000Z,276.03
2023-03-05T09:18:10.000Z,276.03
2023-03-05T09:19:37.000Z,276.07
2023-03-05T09:21:43.000Z,276.07
2023-03-05T09:23:10.000Z,276.1
2023-03-05T09:25:16.000Z,276.14
2023-03-05T09:26:42.000Z,276.19
2023-03-05T09:28:49.000Z,276.25
2023-03-05T09:31:40.000Z,276.3
2023-03-05T09:33:06.000Z,276.32
2023-03-05T09:35:12.000Z,276.32
2023-03-05T09:36:39.000Z,276.37
2023-03-05T09:38:45.000Z,276.41
2023-03-05T09:40:12.000Z,276.44
2023-03-05T09:42:18.000Z,276.46
2023-03-05T09:43:44.000Z,276.48
2023-03-05T09:45:50.000Z,276.51
2023-03-05T09:47:17.000Z,276.48
2023-03-05T09:49:23.000Z,276.46
2023-03-05T09:50:50.000Z,276.46
2023-03-05T09:52:56.000Z,276.47
2023-03-05T09:54:22.000Z,276.48
2023-03-05T09:56:29.000Z,276.48
2023-03-05T09:57:55.000Z,276.48
2023-03-05T10:00:01.000Z,276.5
2023-03-05T10:01:28.000Z,276.48
2023-03-05T10:03:34.000Z,276.44
2023-03-05T10:05:01.000Z,276.41
2023-03-05T10:07:07.000Z,276.36
2023-03-05T10:09:59.000Z,276.33
2023-03-05T10:11:26.000Z,276.25
2023-03-05T10:13:32.000Z,276.21
2023-03-05T10:14:59.000Z,276.18
2023-03-05T10:17:05.000Z,276.19
2023-03-05T10:18:31.000Z,276.18
2023-03-05T10:20:37.000Z,276.19
2023-03-05T10:22:04.000Z,276.18
2023-03-05T10:24:10.000Z,276.13
2023-03-05T10:25:37.000Z,276.19
2023-03-05T10:27:43.000Z,276.23
2023-03-05T10:29:09.000Z,276.33
2023-03-05T10:31:15.000Z,276.41
2023-03-05T10:32:42.000Z,276.51
2023-03-05T10:34:48.000Z,276.58
2023-03-05T10:36:15.000Z,276.64
2023-03-05T10:38:21.000Z,276.68
2023-03-05T10:39:47.000Z,276.74
2023-03-05T10:41:53.000Z,276.83
2023-03-05T10:43:20.000Z,276.84
2023-03-05T10:45:26.000Z,276.88
2023-03-05T10:48:17.000Z,276.91
2023-03-05T10:49:44.000Z,276.94
2023-03-05T10:51:50.000Z,277.01
2023-03-05T10:53:16.000Z,277.05
2023-03-05T10:55:22.000Z,277.11
2023-03-05T10:56:49.000Z,277.06
2023-03-05T10:58:55.000Z,277.11
2023-03-05T11:00:22.000Z,277.2
2023-03-05T11:02:28.000Z,277.2
2023-03-05T11:03:54.000Z,277.23
2023-03-05T11:06:01.000Z,277.26
2023-03-05T11:07:27.000Z,277.36
2023-03-05T11:09:33.000Z,277.4
2023-03-05T11:11:00.000Z,277.41
2023-03-05T11:13:09.000Z,277.48
2023-03-05T11:14:36.000Z,277.53
2023-03-05T11:16:42.000Z,277.55
2023-03-05T11:18:08.000Z,277.63
2023-03-05T11:20:15.000Z,277.61
2023-03-05T11:21:41.000Z,277.68
2023-03-05T11:23:47.000Z,277.77
2023-03-05T11:26:39.000Z,277.89
2023-03-05T11:28:05.000Z,277.95
2023-03-05T11:30:11.000Z,277.92
2023-03-05T11:31:38.000Z,277.93
2023-03-05T11:33:44.000Z,277.99
2023-03-05T11:35:10.000Z,277.99
2023-03-05T11:37:16.000Z,277.99
2023-03-05T11:38:43.000Z,277.97
2023-03-05T11:40:49.000Z,277.95
2023-03-05T11:42:16.000Z,277.99
2023-03-05T11:44:22.000Z,277.96
2023-03-05T11:45:48.000Z,277.97
2023-03-05T11:47:55.000Z,277.92
2023-03-05T11:49:21.000Z,277.92
2023-03-05T11:51:28.000Z,277.81
2023-03-05T11:52:54.000Z,277.75
2023-03-05T11:55:00.000Z,277.82
2023-03-05T11:56:27.000Z,277.85
2023-03-05T11:58:33.000Z,277.82
2023-03-05T11:59:59.000Z,277.81
2023-03-05T12:02:06.000Z,277.75
2023-03-05T12:04:56.000Z,277.64
2023-03-05T12:06:23.000Z,277.55
2023-03-05T12:08:29.000Z,277.49
2023-03-05T12:09:56.000Z,277.45
2023-03-05T12:12:02.000Z,277.45
2023-03-05T12:13:28.000Z,277.4
2023-03-05T12:15:34.000Z,277.36
2023-03-05T12:17:01.000Z,277.36
2023-03-05T12:19:07.000Z,277.37
2023-03-05T12:20:34.000Z,277.37
2023-03-05T12:22:40.000Z,277.37
2023-03-05T12:24:07.000Z,277.4
2023-03-05T12:26:13.000Z,277.43
2023-03-05T12:27:39.000Z,277.45
2023-03-05T12:29:45.000Z,277.43
2023-03-05T12:31:12.000Z,277.38
2023-03-05T12:33:18.000Z,277.37
2023-03-05T12:34:45.000Z,277.43
2023-03-05T12:36:51.000Z,277.51
2023-03-05T12:38:17.000Z,277.55
2023-03-05T12:40:32.000Z,277.43
2023-03-05T12:43:24.000Z,277.38
2023-03-05T12:44:50.000Z,277.36
2023-03-05T12:46:56.000Z,277.36
2023-03-05T12:48:23.000Z,277.41
2023-03-05T12:50:29.000Z,277.43
2023-03-05T12:51:56.000Z,277.41
2023-03-05T12:54:02.000Z,277.45
2023-03-05T12:55:28.000Z,277.43
2023-03-05T12:57:34.000Z,277.48
2023-03-05T12:59:01.000Z,277.55
2023-03-05T13:01:07.000Z,277.53
2023-03-05T13:02:34.000Z,277.52
2023-03-05T13:04:40.000Z,277.45
2023-03-05T13:06:06.000Z,277.38
2023-03-05T13:08:12.000Z,277.36
2023-03-05T13:09:42.000Z,277.41
2023-03-05T13:11:48.000Z,277.49
2023-03-05T13:13:15.000Z,277.53
2023-03-05T13:15:21.000Z,277.51
2023-03-05T13:16:47.000Z,277.48
2023-03-05T13:18:54.000Z,277.43
2023-03-05T13:21:45.000Z,277.41
2023-03-05T13:23:11.000Z,277.45
2023-03-05T13:25:17.000Z,277.38
2023-03-05T13:26:44.000Z,277.34
2023-03-05T13:28:50.000Z,277.3
2023-03-05T13:30:17.000Z,277.33
2023-03-05T13:32:23.000Z,277.31
2023-03-05T13:33:49.000Z,277.31
2023-03-05T13:35:55.000Z,277.34
2023-03-05T13:37:22.000Z,277.38
2023-03-05T13:39:28.000Z,277.37
2023-03-05T13:40:55.000Z,277.38
2023-03-05T13:43:01.000Z,277.41
2023-03-05T13:44:27.000Z,277.45
2023-03-05T13:46:33.000Z,277.43
2023-03-05T13:48:00.000Z,277.43
2023-03-05T13:50:06.000Z,277.46
2023-03-05T13:51:33.000Z,277.46
2023-03-05T13:53:39.000Z,277.45
2023-03-05T13:55:05.000Z,277.34
2023-03-05T13:57:11.000Z,277.33
2023-03-05T14:00:02.000Z,277.3
2023-03-05T14:01:29.000Z,277.29
2023-03-05T14:03:35.000Z,277.23
2023-03-05T14:05:02.000Z,277.16
2023-03-05T14:07:08.000Z,277.08
2023-03-05T14:08:34.000Z,277.02
2023-03-05T14:10:41.000Z,276.95
2023-03-05T14:12:07.000Z,276.9
2023-03-05T14:14:13.000Z,276.87
2023-03-05T14:15:40.000Z,276.83
2023-03-05T14:17:46.000Z,276.8
2023-03-05T14:19:13.000Z,276.77
2023-03-05T14:21:19.000Z,276.72
2023-03-05T14:22:46.000Z,276.66
2023-03-05T14:24:52.000Z,276.66
2023-03-05T14:26:18.000Z,276.68
2023-03-05T14:28:25.000Z,276.64
2023-03-05T14:29:51.000Z,276.61
2023-03-05T14:31:58.000Z,276.58
2023-03-05T14:33:24.000Z,276.51
2023-03-05T14:35:30.000Z,276.43
2023-03-05T14:38:22.000Z,276.37
2023-03-05T14:39:48.000Z,276.3
2023-03-05T14:41:54.000Z,276.26
2023-03-05T14:43:21.000Z,276.25
2023-03-05T14:45:27.000Z,276.28
2023-03-05T14:46:54.000Z,276.26
2023-03-05T14:49:00.000Z,276.25
2023-03-05T14:50:26.000Z,276.23
2023-03-05T14:52:32.000Z,276.25
2023-03-05T14:53:59.000Z,276.23
2023-03-05T14:56:05.000Z,276.25
2023-03-05T14:57:31.000Z,276.23
2023-03-05T14:59:38.000Z,276.26
2023-03-05T15:01:04.000Z,276.26
2023-03-05T15:03:10.000Z,276.26
2023-03-05T15:04:37.000Z,276.29
2023-03-05T15:06:43.000Z,276.3
2023-03-05T15:08:09.000Z,276.32
2023-03-05T15:10:16.000Z,276.33
2023-03-05T15:11:42.000Z,276.32
2023-03-05T15:13:48.000Z,276.29
2023-03-05T15:16:40.000Z,276.28
2023-03-05T15:18:06.000Z,276.28
2023-03-05T15:20:12.000Z,276.28
2023-03-05T15:21:39.000Z,276.29
2023-03-05T15:23:45.000Z,276.26
2023-03-05T15:25:11.000Z,276.28
2023-03-05T15:27:17.000Z,276.28
2023-03-05T15:28:44.000Z,276.28
2023-03-05T15:30:50.000Z,276.25
2023-03-05T15:32:17.000Z,276.25
2023-03-05T15:34:23.000Z,276.25
2023-03-05T15:35:49.000Z,276.25
2023-03-05T15:37:56.000Z,276.25
2023-03-05T15:39:22.000Z,276.25
2023-03-05T15:41:28.000Z,276.26
2023-03-05T15:42:55.000Z,276.25
2023-03-05T15:45:01.000Z,276.25
2023-03-05T15:46:27.000Z,276.23
2023-03-05T15:48:34.000Z,276.23
2023-03-05T15:50:00.000Z,276.21
2023-03-05T15:52:06.000Z,276.22
2023-03-05T15:54:58.000Z,276.22
2023-03-05T15:56:24.000Z,276.21
2023-03-05T15:58:30.000Z,276.21
2023-03-05T15:59:57.000Z,276.22
2023-03-05T16:02:03.000Z,276.19
2023-03-05T16:03:30.000Z,276.22
2023-03-05T16:05:36.000Z,276.21
2023-03-05T16:07:02.000Z,276.22
2023-03-05T16:09:08.000Z,276.21
2023-03-05T16:10:35.000Z,276.19
2023-03-05T16:12:41.000Z,276.19
2023-03-05T16:14:07.000Z,276.19
2023-03-05T16:16:14.000Z,276.18
2023-03-05T16:17:40.000Z,276.18
2023-03-05T16:19:47.000Z,276.15
2023-03-05T16:21:14.000Z,276.15
2023-03-05T16:23:20.000Z,276.18
2023-03-05T16:24:46.000Z,276.14
2023-03-05T16:26:52.000Z,276.13
2023-03-05T16:28:19.000Z,276.11
2023-03-05T16:30:25.000Z,276.1
2023-03-05T16:33:16.000Z,276.06
2023-03-05T16:34:42.000Z,276.06
2023-03-05T16:36:48.000Z,276.03
2023-03-05T16:38:15.000Z,276.03
2023-03-05T16:40:21.000Z,276
2023-03-05T16:41:48.000Z,275.99
2023-03-05T16:43:54.000Z,275.96
2023-03-05T16:45:20.000Z,275.95
2023-03-05T16:47:26.000Z,275.94
2023-03-05T16:48:53.000Z,275.92
2023-03-05T16:50:59.000Z,275.92
2023-03-05T16:52:25.000Z,275.92
2023-03-05T16:54:31.000Z,275.89
2023-03-05T16:55:58.000Z,275.87
2023-03-05T16:58:04.000Z,275.85
2023-03-05T16:59:31.000Z,275.82
2023-03-05T17:01:37.000Z,275.8
2023-03-05T17:03:03.000Z,275.77
2023-03-05T17:05:09.000Z,275.74
2023-03-05T17:06:36.000Z,275.71
2023-03-05T17:08:42.000Z,275.69
2023-03-05T17:11:33.000Z,275.64
2023-03-05T17:13:00.000Z,275.62
2023-03-05T17:15:06.000Z,275.6
2023-03-05T17:16:32.000Z,275.57
2023-03-05T17:18:39.000Z,275.55
2023-03-05T17:20:05.000Z,275.56
2023-03-05T17:22:11.000Z,275.52
2023-03-05T17:23:38.000Z,275.52
2023-03-05T17:25:44.000Z,275.5
2023-03-05T17:27:10.000Z,275.49
2023-03-05T17:29:17.000Z,275.49
2023-03-05T17:30:43.000Z,275.49
2023-03-05T17:32:49.000Z,275.48
2023-03-05T17:34:16.000Z,275.48
2023-03-05T17:36:24.000Z,275.45
2023-03-05T17:37:50.000Z,275.45
2023-03-05T17:39:56.000Z,275.42
2023-03-05T17:41:23.000Z,275.42
2023-03-05T17:43:29.000Z,275.41
2023-03-05T17:44:56.000Z,275.39
2023-03-05T17:47:02.000Z,275.39
2023-03-05T17:49:52.000Z,275.37
2023-03-05T17:51:19.000Z,275.35
2023-03-05T17:53:25.000Z,275.35
2023-03-05T17:54:52.000Z,275.35
2023-03-05T17:56:58.000Z,275.34
2023-03-05T17:58:24.000Z,275.32
2023-03-05T18:00:30.000Z,275.31
2023-03-05T18:01:57.000Z,275.3
2023-03-05T18:04:03.000Z,275.3
2023-03-05T18:05:29.000Z,275.3
2023-03-05T18:07:35.000Z,275.28
2023-03-05T18:09:02.000Z,275.27
2023-03-05T18:11:08.000Z,275.24
2023-03-05T18:12:34.000Z,275.24
2023-03-05T18:14:41.000Z,275.24
2023-03-05T18:16:07.000Z,275.23
2023-03-05T18:18:13.000Z,275.2
2023-03-05T18:19:40.000Z,275.2
2023-03-05T18:21:46.000Z,275.2
2023-03-05T18:23:13.000Z,275.19
2023-03-05T18:25:19.000Z,275.19
2023-03-05T18:28:10.000Z,275.17
2023-03-05T18:29:36.000Z,275.19
2023-03-05T18:31:42.000Z,275.17
2023-03-05T18:33:09.000Z,275.17
2023-03-05T18:35:15.000Z,275.17
2023-03-05T18:36:42.000Z,275.16
2023-03-05T18:38:48.000Z,275.17
2023-03-05T18:40:14.000Z,275.16
2023-03-05T18:42:23.000Z,275.16
2023-03-05T18:43:50.000Z,275.16
2023-03-05T18:45:56.000Z,275.17
2023-03-05T18:47:23.000Z,275.17
2023-03-05T18:49:29.000Z,275.15
2023-03-05T18:50:56.000Z,275.15
2023-03-05T18:53:02.000Z,275.15
2023-03-05T18:54:28.000Z,275.13
2023-03-05T18:56:34.000Z,275.13
2023-03-05T18:58:01.000Z,275.12
2023-03-05T19:00:07.000Z,275.12
2023-03-05T19:01:34.000Z,275.1
2023-03-05T19:03:40.000Z,275.1
2023-03-05T19:06:31.000Z,275.1
2023-03-05T19:07:57.000Z,275.09
2023-03-05T19:10:03.000Z,275.1
2023-03-05T19:11:30.000Z,275.1
2023-03-05T19:13:36.000Z,275.08
2023-03-05T19:15:02.000Z,275.09
2023-03-05T19:17:09.000Z,275.08
2023-03-05T19:18:35.000Z,275.06
2023-03-05T19:20:41.000Z,275.06
2023-03-05T19:22:08.000Z,275.05
2023-03-05T19:24:14.000Z,275.06
2023-03-05T19:25:40.000Z,275.05
2023-03-05T19:27:46.000Z,275.05
2023-03-05T19:29:13.000Z,275.06
2023-03-05T19:31:19.000Z,275.05
2023-03-05T19:32:46.000Z,275.04
2023-03-05T19:34:52.000Z,275.02
2023-03-05T19:36:18.000Z,275.02
2023-03-05T19:38:24.000Z,275.04
2023-03-05T19:39:51.000Z,275.02
2023-03-05T19:41:57.000Z,275.01
2023-03-05T19:44:48.000Z,275.04
2023-03-05T19:46:14.000Z,275.02
2023-03-05T19:48:21.000Z,275.02
2023-03-05T19:49:47.000Z,275.01
2023-03-05T19:51:53.000Z,275.01
2023-03-05T19:53:20.000Z,275.01
2023-03-05T19:55:26.000Z,274.99
2023-03-05T19:56:52.000Z,274.99
2023-03-05T19:59:00.000Z,274.99
2023-03-05T20:00:26.000Z,274.98
2023-03-05T20:02:33.000Z,274.98
2023-03-05T20:03:59.000Z,274.98
2023-03-05T20:06:05.000Z,274.97
2023-03-05T20:07:32.000Z,274.97
2023-03-05T20:09:38.000Z,274.95
2023-03-05T20:11:04.000Z,274.95
2023-03-05T20:13:11.000Z,274.95
2023-03-05T20:14:37.000Z,274.95
2023-03-05T20:16:43.000Z,274.94
2023-03-05T20:18:10.000Z,274.92
2023-03-05T20:20:16.000Z,274.91
2023-03-05T20:23:07.000Z,274.9
2023-03-05T20:24:34.000Z,274.9
2023-03-05T20:26:40.000Z,274.9
2023-03-05T20:28:06.000Z,274.88
2023-03-05T20:30:12.000Z,274.9
2023-03-05T20:31:39.000Z,274.87
2023-03-05T20:33:45.000Z,274.87
2023-03-05T20:35:12.000Z,274.87
2023-03-05T20:37:18.000Z,274.87
2023-03-05T20:38:44.000Z,274.85
2023-03-05T20:40:50.000Z,274.85
2023-03-05T20:42:17.000Z,274.85
2023-03-05T20:44:23.000Z,274.85
2023-03-05T20:45:50.000Z,274.84
2023-03-05T20:47:56.000Z,274.83
2023-03-05T20:49:22.000Z,274.83
2023-03-05T20:51:28.000Z,274.83
2023-03-05T20:52:55.000Z,274.81
2023-03-05T20:55:01.000Z,274.81
2023-03-05T20:56:28.000Z,274.81
2023-03-05T20:58:34.000Z,274.8
2023-03-05T21:01:25.000Z,274.78
2023-03-05T21:02:51.000Z,274.77
2023-03-05T21:04:57.000Z,274.76
2023-03-05T21:06:24.000Z,274.76
2023-03-05T21:08:30.000Z,274.73
2023-03-05T21:09:57.000Z,274.72
2023-03-05T21:12:03.000Z,274.71
2023-03-05T21:13:29.000Z,274.71
2023-03-05T21:15:35.000Z,274.71
2023-03-05T21:17:02.000Z,274.71
2023-03-05T21:19:08.000Z,274.71
2023-03-05T21:20:35.000Z,274.68
2023-03-05T21:22:41.000Z,274.69
2023-03-05T21:24:07.000Z,274.69
2023-03-05T21:26:13.000Z,274.66
2023-03-05T21:27:40.000Z,274.66
2023-03-05T21:29:46.000Z,274.64
2023-03-05T21:31:13.000Z,274.64
2023-03-05T21:33:19.000Z,274.62
2023-03-05T21:34:45.000Z,274.61
2023-03-05T21:36:52.000Z,274.59
2023-03-05T21:39:42.000Z,274.58
2023-03-05T21:41:09.000Z,274.56
2023-03-05T21:43:15.000Z,274.56
2023-03-05T21:44:42.000Z,274.54
2023-03-05T21:46:48.000Z,274.51
2023-03-05T21:48:14.000Z,274.5
2023-03-05T21:50:21.000Z,274.46
2023-03-05T21:51:47.000Z,274.44
2023-03-05T21:53:53.000Z,274.44
2023-03-05T21:55:20.000Z,274.43
2023-03-05T21:57:26.000Z,274.42
2023-03-05T21:58:53.000Z,274.39
2023-03-05T22:00:59.000Z,274.39
2023-03-05T22:02:25.000Z,274.36
2023-03-05T22:04:31.000Z,274.36
2023-03-05T22:05:58.000Z,274.33
2023-03-05T22:08:04.000Z,274.33
2023-03-05T22:09:30.000Z,274.32
2023-03-05T22:11:36.000Z,274.31
2023-03-05T22:13:03.000Z,274.29
2023-03-05T22:15:09.000Z,274.28
2023-03-05T22:18:00.000Z,274.25
2023-03-05T22:19:27.000Z,274.22
2023-03-05T22:21:33.000Z,274.21
2023-03-05T22:22:59.000Z,274.21
2023-03-05T22:25:05.000Z,274.19
2023-03-05T22:26:32.000Z,274.21
2023-03-05T22:28:38.000Z,274.19
2023-03-05T22:30:04.000Z,274.19
2023-03-05T22:32:11.000Z,274.18
2023-03-05T22:33:37.000Z,274.15
2023-03-05T22:35:43.000Z,274.15
2023-03-05T22:37:10.000Z,274.14
2023-03-05T22:39:16.000Z,274.12
2023-03-05T22:40:42.000Z,274.11
2023-03-05T22:42:48.000Z,274.1
2023-03-05T22:44:15.000Z,274.1
2023-03-05T22:46:21.000Z,274.1
2023-03-05T22:47:48.000Z,274.1